DTTJ/DJE METAR and TAF weather

Enter ICAO airport designator
Station Type Date Time Source
DTTJ METAR 2020/11/27 14:30 UTC NOAA

DTTJ 271430Z 13013KT 9999 FEW020 20/12 Q1013 NOSIG


Station Type Date Time Source
DTTJ Decoded METAR 2020/11/27 14:30 UTC NOAA

Djerba Mellita, Tunisia (DTTJ) 33-52N 010-46E 4M
Nov 27, 2020 - 09:30 AM EST / 2020.11.27 1430 UTC
Wind: from the SE (130 degrees) at 15 MPH (13 KT):0
Visibility: greater than 7 mile(s):0
Sky conditions: mostly clear
Temperature: 68 F (20 C)
Dew Point: 53 F (12 C)
Relative Humidity: 59%
Pressure (altimeter): 29.91 in. Hg (1013 hPa)
ob: DTTJ 271430Z 13013KT 9999 FEW020 20/12 Q1013 NOSIG
cycle: 14

Station Type Date Time Source
DTTJ TAF 2020/11/27 12:45 UTC NOAA

TAF DTTJ 271100Z 2712/2812 15015KT 8000 FEW020
TEMPO 2720/2804 14025G37KT
BECMG 2804/2806 17017G27KT

Example: see airport list